createdAt,value
2019-02-12T00:01:57.759Z,3.91
2019-02-12T00:04:27.397Z,4.02
2019-02-12T00:06:58.201Z,3.97
2019-02-12T00:09:28.258Z,3.93
2019-02-12T00:11:57.736Z,3.97
2019-02-12T00:14:27.586Z,3.98
2019-02-12T00:16:57.871Z,3.98
2019-02-12T00:19:27.664Z,4.13
2019-02-12T00:21:58.040Z,3.99
2019-02-12T00:24:28.220Z,3.99
2019-02-12T00:26:58.017Z,3.98
2019-02-12T00:29:28.064Z,4.03
2019-02-12T00:31:58.348Z,4.04
2019-02-12T00:34:29.103Z,4.03
2019-02-12T00:36:58.847Z,4.07
2019-02-12T00:39:28.564Z,4.12
2019-02-12T00:41:58.779Z,3.99
2019-02-12T00:44:28.705Z,4.14
2019-02-12T00:46:58.751Z,4.04
2019-02-12T00:49:28.612Z,4.11
2019-02-12T00:51:58.375Z,4.10
2019-02-12T00:54:28.888Z,4.18
2019-02-12T00:56:58.971Z,4.16
2019-02-12T00:59:28.964Z,4.10
2019-02-12T01:01:58.770Z,4.05
2019-02-12T01:04:29.336Z,4.13
2019-02-12T01:06:59.291Z,4.12
2019-02-12T01:09:29.253Z,4.20
2019-02-12T01:11:58.746Z,4.18
2019-02-12T01:14:28.735Z,4.17
2019-02-12T01:16:59.075Z,4.17
2019-02-12T01:19:29.339Z,4.14
2019-02-12T01:21:59.133Z,4.16
2019-02-12T01:24:28.892Z,4.13
2019-02-12T01:26:58.984Z,4.17
2019-02-12T01:29:29.456Z,4.11
2019-02-12T01:31:59.312Z,4.18
2019-02-12T01:34:29.589Z,4.23
2019-02-12T01:36:59.396Z,4.22
2019-02-12T01:39:29.623Z,4.19
2019-02-12T01:41:59.518Z,4.17
2019-02-12T01:44:29.558Z,4.18
2019-02-12T01:46:59.537Z,4.19
2019-02-12T01:49:29.574Z,4.19
2019-02-12T01:51:59.764Z,4.16
2019-02-12T01:54:29.886Z,4.16
2019-02-12T01:56:59.506Z,4.18
2019-02-12T01:59:30.132Z,4.19
2019-02-12T02:02:00.369Z,4.33
2019-02-12T02:04:30.350Z,4.22
2019-02-12T02:07:00.307Z,4.24
2019-02-12T02:09:30.290Z,4.18
2019-02-12T02:12:00.306Z,4.18
2019-02-12T02:14:30.971Z,4.21
2019-02-12T02:17:01.053Z,4.19
2019-02-12T02:19:30.768Z,4.23
2019-02-12T02:22:00.498Z,4.22
2019-02-12T02:24:30.532Z,4.26
2019-02-12T02:27:00.787Z,4.20
2019-02-12T02:29:30.735Z,4.17
2019-02-12T02:32:00.866Z,4.24
2019-02-12T02:34:30.879Z,4.16
2019-02-12T02:37:00.841Z,4.17
2019-02-12T02:39:31.599Z,4.21
2019-02-12T02:42:01.110Z,4.19
2019-02-12T02:44:31.053Z,4.24
2019-02-12T02:47:00.891Z,4.20
2019-02-12T02:49:30.918Z,4.20
2019-02-12T02:52:01.166Z,4.26
2019-02-12T02:54:31.455Z,4.15
2019-02-12T02:57:01.276Z,4.14
2019-02-12T02:59:31.246Z,4.16
2019-02-12T03:02:01.830Z,4.17
2019-02-12T03:04:31.562Z,4.20
2019-02-12T03:07:03.957Z,4.04
2019-02-12T03:09:34.179Z,4.13
2019-02-12T03:12:03.724Z,4.10
2019-02-12T03:14:33.546Z,4.17
2019-02-12T03:17:03.745Z,3.98
2019-02-12T03:19:33.253Z,4.03
2019-02-12T03:22:04.021Z,4.01
2019-02-12T03:24:34.099Z,4.06
2019-02-12T03:27:03.655Z,4.05
2019-02-12T03:29:33.213Z,3.93
2019-02-12T03:32:02.739Z,3.92
2019-02-12T03:34:32.218Z,3.79
2019-02-12T03:37:02.111Z,3.51
2019-02-12T03:39:31.956Z,3.22
2019-02-12T03:42:02.732Z,3.26
2019-02-12T03:44:32.287Z,3.25
2019-02-12T03:47:02.026Z,3.23
2019-02-12T03:49:32.352Z,3.22
2019-02-12T03:52:02.149Z,3.19
2019-02-12T03:54:32.473Z,3.14
2019-02-12T03:57:02.298Z,3.24
2019-02-12T03:59:32.288Z,3.24
2019-02-12T04:02:02.349Z,3.24
2019-02-12T04:04:33.213Z,3.35
2019-02-12T04:07:03.003Z,3.42
2019-02-12T04:09:32.733Z,3.36
2019-02-12T04:12:02.640Z,3.46
2019-02-12T04:14:33.467Z,3.35
2019-02-12T04:17:03.227Z,3.31
2019-02-12T04:19:32.703Z,3.43
2019-02-12T04:22:03.396Z,3.38
2019-02-12T04:24:33.244Z,3.45
2019-02-12T04:27:02.997Z,3.50
2019-02-12T04:29:32.804Z,3.51
2019-02-12T04:32:03.099Z,3.46
2019-02-12T04:34:32.872Z,3.47
2019-02-12T04:37:02.924Z,3.45
2019-02-12T04:39:33.237Z,3.35
2019-02-12T04:42:03.012Z,3.41
2019-02-12T04:44:33.111Z,3.40
2019-02-12T04:47:03.340Z,3.40
2019-02-12T04:49:33.136Z,3.38
2019-02-12T04:52:03.433Z,3.40
2019-02-12T04:54:33.355Z,3.41
2019-02-12T04:57:03.282Z,3.36
2019-02-12T04:59:33.708Z,3.27
2019-02-12T05:02:03.453Z,3.41
2019-02-12T05:04:33.377Z,3.49
2019-02-12T05:07:03.738Z,3.40
2019-02-12T05:09:34.323Z,3.52
2019-02-12T05:12:06.088Z,3.41
2019-02-12T05:14:35.715Z,3.47
2019-02-12T05:17:05.242Z,3.33
2019-02-12T05:19:34.838Z,3.44
2019-02-12T05:22:04.416Z,3.43
2019-02-12T05:24:34.153Z,3.39
2019-02-12T05:27:04.512Z,3.42
2019-02-12T05:29:34.039Z,3.38
2019-02-12T05:32:03.995Z,3.46
2019-02-12T05:34:34.258Z,3.41
2019-02-12T05:37:04.657Z,3.41
2019-02-12T05:39:34.637Z,3.39
2019-02-12T05:42:05.273Z,3.43
2019-02-12T05:44:36.476Z,3.39
2019-02-12T05:47:07.787Z,3.36
2019-02-12T05:49:37.907Z,3.49
2019-02-12T05:52:08.274Z,3.35
2019-02-12T05:54:37.993Z,3.43
2019-02-12T05:57:07.730Z,3.42
2019-02-12T05:59:37.810Z,3.43
2019-02-12T06:02:07.708Z,3.49
2019-02-12T06:04:37.294Z,3.29
2019-02-12T06:07:06.836Z,3.33
2019-02-12T06:09:36.557Z,3.31
2019-02-12T06:12:06.042Z,3.25
2019-02-12T06:14:35.521Z,3.27
2019-02-12T06:17:05.067Z,3.31
2019-02-12T06:19:35.069Z,3.32
2019-02-12T06:22:04.850Z,3.38
2019-02-12T06:24:35.015Z,3.40
2019-02-12T06:27:04.933Z,3.31
2019-02-12T06:29:34.890Z,3.32
2019-02-12T06:32:05.192Z,3.37
2019-02-12T06:34:35.481Z,3.37
2019-02-12T06:37:05.103Z,3.38
2019-02-12T06:39:35.541Z,3.41
2019-02-12T06:42:05.256Z,3.43
2019-02-12T06:44:35.696Z,3.38
2019-02-12T06:47:05.254Z,3.39
2019-02-12T06:49:35.294Z,3.34
2019-02-12T06:52:05.799Z,3.34
2019-02-12T06:54:35.498Z,3.34
2019-02-12T06:57:05.395Z,3.34
2019-02-12T06:59:35.511Z,3.35
2019-02-12T07:02:41.958Z,3.37
2019-02-12T07:05:11.436Z,3.38
2019-02-12T07:08:33.877Z,3.31
2019-02-12T07:11:21.819Z,3.33
2019-02-12T07:14:02.646Z,3.36
2019-02-12T07:16:52.967Z,3.43
2019-02-12T07:19:36.025Z,3.37
2019-02-12T07:22:46.435Z,3.36
2019-02-12T07:25:42.325Z,3.36
2019-02-12T07:28:45.345Z,3.38
2019-02-12T07:31:50.839Z,3.40
2019-02-12T07:34:55.245Z,3.53
2019-02-12T07:37:38.230Z,3.48
2019-02-12T07:40:53.176Z,3.61
2019-02-12T07:43:54.773Z,3.59
2019-02-12T07:47:23.667Z,3.68
2019-02-12T07:50:32.189Z,3.59
2019-02-12T07:53:31.221Z,3.69
2019-02-12T07:56:55.236Z,3.85
2019-02-12T07:59:45.912Z,3.86
2019-02-12T08:02:52.795Z,3.90
2019-02-12T08:06:16.196Z,3.99
2019-02-12T08:09:21.180Z,3.96
2019-02-12T08:12:02.326Z,4.12
2019-02-12T08:15:03.038Z,4.17
2019-02-12T08:18:07.876Z,4.10
2019-02-12T08:21:04.659Z,4.16
2019-02-12T08:24:04.724Z,4.20
2019-02-12T08:26:59.581Z,4.23
2019-02-12T08:30:12.539Z,4.36
2019-02-12T08:33:15.793Z,4.38
2019-02-12T08:35:57.763Z,4.47
2019-02-12T08:39:07.849Z,4.34
2019-02-12T08:42:09.938Z,4.27
2019-02-12T08:45:11.052Z,4.34
2019-02-12T08:48:07.389Z,4.30
2019-02-12T08:50:55.171Z,4.26
2019-02-12T08:53:33.460Z,4.22
2019-02-12T08:56:41.245Z,3.99
2019-02-12T08:59:31.560Z,4.04
2019-02-12T09:02:41.470Z,4.25
2019-02-12T09:05:48.963Z,4.11
2019-02-12T09:08:46.318Z,4.22
2019-02-12T09:11:52.832Z,4.34
2019-02-12T09:15:11.986Z,4.21
2019-02-12T09:18:16.042Z,4.26
2019-02-12T09:20:55.851Z,4.25
2019-02-12T09:24:07.414Z,4.32
2019-02-12T09:27:06.122Z,4.41
2019-02-12T09:30:01.887Z,4.31
2019-02-12T09:33:04.701Z,4.77
2019-02-12T09:36:07.437Z,4.82
2019-02-12T09:39:14.252Z,4.86
2019-02-12T09:42:19.577Z,4.92
2019-02-12T09:45:17.843Z,4.86
2019-02-12T09:48:05.986Z,4.77
2019-02-12T09:51:00.800Z,5.01
2019-02-12T09:54:17.797Z,5.38
2019-02-12T09:56:58.879Z,4.86
2019-02-12T10:00:02.422Z,5.60
2019-02-12T10:02:54.843Z,5.64
2019-02-12T10:05:56.540Z,5.82
2019-02-12T10:09:17.913Z,5.61
2019-02-12T10:12:15.652Z,5.21
2019-02-12T10:15:37.738Z,5.41
2019-02-12T10:18:29.595Z,5.35
2019-02-12T10:21:24.777Z,5.31
2019-02-12T10:24:31.380Z,5.23
2019-02-12T10:27:16.403Z,5.28
2019-02-12T10:30:09.976Z,5.09
2019-02-12T10:32:38.516Z,5.20
2019-02-12T10:35:08.087Z,5.34
2019-02-12T10:37:38.204Z,5.25
2019-02-12T10:40:07.754Z,5.71
2019-02-12T10:42:37.850Z,5.47
2019-02-12T10:45:07.546Z,5.84
2019-02-12T10:47:37.296Z,5.56
2019-02-12T10:50:06.930Z,6.34
2019-02-12T10:52:36.442Z,6.36
2019-02-12T10:55:06.212Z,5.74
2019-02-12T10:57:35.728Z,6.37
2019-02-12T11:00:08.527Z,6.10
2019-02-12T11:02:38.917Z,5.77
2019-02-12T11:05:08.420Z,5.82
2019-02-12T11:07:37.946Z,5.70
2019-02-12T11:10:08.040Z,5.74
2019-02-12T11:12:37.804Z,6.38
2019-02-12T11:15:07.776Z,6.58
2019-02-12T11:17:37.287Z,7.03
2019-02-12T11:20:07.273Z,6.86
2019-02-12T11:22:36.766Z,7.02
2019-02-12T11:25:06.452Z,6.82
2019-02-12T11:27:35.922Z,7.16
2019-02-12T11:30:06.795Z,7.04
2019-02-12T11:32:36.741Z,7.29
2019-02-12T11:35:06.641Z,7.29
2019-02-12T11:37:36.211Z,6.96
2019-02-12T11:40:06.891Z,7.01
2019-02-12T11:42:36.416Z,7.17
2019-02-12T11:45:07.386Z,6.64
2019-02-12T11:47:36.921Z,6.86
2019-02-12T11:50:07.288Z,6.82
2019-02-12T11:52:36.840Z,7.36
2019-02-12T11:55:07.178Z,7.67
2019-02-12T11:57:36.906Z,7.59
2019-02-12T12:00:09.026Z,7.12
2019-02-12T12:02:42.014Z,7.01
2019-02-12T12:05:10.419Z,6.95
2019-02-12T12:07:40.508Z,6.62
2019-02-12T12:10:11.440Z,7.43
2019-02-12T12:12:41.735Z,6.69
2019-02-12T12:15:11.605Z,6.56
2019-02-12T12:17:41.506Z,6.82
2019-02-12T12:20:12.728Z,7.00
2019-02-12T12:22:42.314Z,6.96
2019-02-12T12:25:12.181Z,6.89
2019-02-12T12:27:41.686Z,6.88
2019-02-12T12:30:11.969Z,7.68
2019-02-12T12:32:42.116Z,7.66
2019-02-12T12:35:11.923Z,7.78
2019-02-12T12:37:42.084Z,8.26
2019-02-12T12:40:12.192Z,7.57
2019-02-12T12:42:42.160Z,7.40
2019-02-12T12:45:12.114Z,7.62
2019-02-12T12:47:42.316Z,7.76
2019-02-12T12:50:12.085Z,7.92
2019-02-12T12:52:42.110Z,7.64
2019-02-12T12:55:12.095Z,7.86
2019-02-12T12:57:42.408Z,7.56
2019-02-12T13:00:12.690Z,7.56
2019-02-12T13:02:42.216Z,7.18
2019-02-12T13:05:12.457Z,7.29
2019-02-12T13:07:42.496Z,7.21
2019-02-12T13:10:14.166Z,7.13
2019-02-12T13:12:44.049Z,7.19
2019-02-12T13:15:13.667Z,7.58
2019-02-12T13:17:43.274Z,7.13
2019-02-12T13:20:13.695Z,7.17
2019-02-12T13:22:43.691Z,7.28
2019-02-12T13:25:13.338Z,7.68
2019-02-12T13:27:42.822Z,7.45
2019-02-12T13:30:15.044Z,7.56
2019-02-12T13:32:44.778Z,7.89
2019-02-12T13:35:15.856Z,7.94
2019-02-12T13:37:47.339Z,7.59
2019-02-12T13:40:16.852Z,7.84
2019-02-12T13:42:47.253Z,8.10
2019-02-12T13:45:17.830Z,8.14
2019-02-12T13:47:48.775Z,8.29
2019-02-12T13:50:18.280Z,8.51
2019-02-12T13:52:48.095Z,7.89
2019-02-12T13:55:17.920Z,8.22
2019-02-12T13:57:48.035Z,8.09
2019-02-12T14:00:17.633Z,8.10
2019-02-12T14:02:47.478Z,8.26
2019-02-12T14:05:17.648Z,7.98
2019-02-12T14:07:47.153Z,7.64
2019-02-12T14:10:17.364Z,7.40
2019-02-12T14:12:48.449Z,7.38
2019-02-12T14:15:18.562Z,7.24
2019-02-12T14:17:48.066Z,7.57
2019-02-12T14:20:17.642Z,7.49
2019-02-12T14:22:47.462Z,7.81
2019-02-12T14:25:24.980Z,7.20
2019-02-12T14:27:48.263Z,7.30
2019-02-12T14:30:18.227Z,7.33
2019-02-12T14:32:47.755Z,7.41
2019-02-12T14:35:17.268Z,7.61
2019-02-12T14:37:46.776Z,7.56
2019-02-12T14:40:17.347Z,7.37
2019-02-12T14:42:46.852Z,7.25
2019-02-12T14:45:16.465Z,7.49
2019-02-12T14:47:45.942Z,7.43
2019-02-12T14:50:15.505Z,7.61
2019-02-12T14:52:44.985Z,7.79
2019-02-12T14:55:14.458Z,7.46
2019-02-12T14:57:44.575Z,7.30
2019-02-12T15:00:15.000Z,7.14
2019-02-12T15:02:44.890Z,7.25
2019-02-12T15:05:15.001Z,6.85
2019-02-12T15:07:45.153Z,6.91
2019-02-12T15:10:15.113Z,6.86
2019-02-12T15:12:45.151Z,6.96
2019-02-12T15:15:15.079Z,6.80
2019-02-12T15:17:45.571Z,6.89
2019-02-12T15:20:15.253Z,7.13
2019-02-12T15:22:45.202Z,7.06
2019-02-12T15:25:14.971Z,7.08
2019-02-12T15:27:45.651Z,6.92
2019-02-12T15:30:15.266Z,7.04
2019-02-12T15:32:45.252Z,7.12
2019-02-12T15:35:15.305Z,7.12
2019-02-12T15:37:45.443Z,6.91
2019-02-12T15:40:15.343Z,6.99
2019-02-12T15:42:45.361Z,6.84
2019-02-12T15:45:16.324Z,6.84
2019-02-12T15:47:45.846Z,6.76
2019-02-12T15:50:16.140Z,6.57
2019-02-12T15:52:45.998Z,6.55
2019-02-12T15:55:15.877Z,6.65
2019-02-12T15:57:46.126Z,6.85
2019-02-12T16:00:18.591Z,6.57
2019-02-12T16:02:47.557Z,6.78
2019-02-12T16:05:17.056Z,6.64
2019-02-12T16:07:47.356Z,6.55
2019-02-12T16:10:19.538Z,6.71
2019-02-12T16:12:51.267Z,6.67
2019-02-12T16:15:22.426Z,6.69
2019-02-12T16:17:51.856Z,6.80
2019-02-12T16:20:21.354Z,6.55
2019-02-12T16:22:50.868Z,6.49
2019-02-12T16:25:20.425Z,6.54
2019-02-12T16:27:50.167Z,6.38
2019-02-12T16:30:19.681Z,6.47
2019-02-12T16:32:49.260Z,6.39
2019-02-12T16:35:19.122Z,6.38
2019-02-12T16:37:48.702Z,6.44
2019-02-12T16:40:18.285Z,6.42
2019-02-12T16:42:48.124Z,6.54
2019-02-12T16:45:21.149Z,6.51
2019-02-12T16:47:50.718Z,6.59
2019-02-12T16:50:20.282Z,6.40
2019-02-12T16:52:49.908Z,6.53
2019-02-12T16:55:19.736Z,6.47
2019-02-12T16:57:49.348Z,6.44
2019-02-12T17:00:19.051Z,6.18
2019-02-12T17:02:48.747Z,6.18
2019-02-12T17:05:18.336Z,6.36
2019-02-12T17:07:47.914Z,6.73
2019-02-12T17:10:18.519Z,6.48
2019-02-12T17:12:48.137Z,6.23
2019-02-12T17:15:18.053Z,6.33
2019-02-12T17:17:48.022Z,6.34
2019-02-12T17:20:18.518Z,6.29
2019-02-12T17:22:48.117Z,6.23
2019-02-12T17:25:18.285Z,6.22
2019-02-12T17:27:48.217Z,6.21
2019-02-12T17:30:19.190Z,6.15
2019-02-12T17:32:49.822Z,6.01
2019-02-12T17:35:19.640Z,5.93
2019-02-12T17:37:49.449Z,6.05
2019-02-12T17:40:19.607Z,6.19
2019-02-12T17:42:49.566Z,6.19
2019-02-12T17:45:19.763Z,6.10
2019-02-12T17:47:49.800Z,6.14
2019-02-12T17:50:19.711Z,6.14
2019-02-12T17:52:49.394Z,6.15
2019-02-12T17:55:18.993Z,6.05
2019-02-12T17:57:49.029Z,6.18
2019-02-12T18:00:24.655Z,6.03
2019-02-12T18:02:54.761Z,6.04
2019-02-12T18:05:25.088Z,5.95
2019-02-12T18:07:54.725Z,5.94
2019-02-12T18:10:24.402Z,5.93
2019-02-12T18:12:54.612Z,5.83
2019-02-12T18:15:24.184Z,5.80
2019-02-12T18:17:54.185Z,5.92
2019-02-12T18:20:26.625Z,5.98
2019-02-12T18:22:54.928Z,5.78
2019-02-12T18:25:24.664Z,5.64
2019-02-12T18:27:54.444Z,5.59
2019-02-12T18:30:24.357Z,5.57
2019-02-12T18:32:55.202Z,5.55
2019-02-12T18:35:24.813Z,5.80
2019-02-12T18:37:54.803Z,5.90
2019-02-12T18:40:24.426Z,5.73
2019-02-12T18:42:54.033Z,5.84
2019-02-12T18:45:23.873Z,5.75
2019-02-12T18:47:53.669Z,5.77
2019-02-12T18:50:23.902Z,5.82
2019-02-12T18:52:53.817Z,5.67
2019-02-12T18:55:23.340Z,5.71
2019-02-12T18:57:52.932Z,5.83
2019-02-12T19:00:22.987Z,5.75
2019-02-12T19:02:52.673Z,5.86
2019-02-12T19:05:22.220Z,5.83
2019-02-12T19:07:51.771Z,5.85
2019-02-12T19:10:21.420Z,5.83
2019-02-12T19:12:51.031Z,5.71
2019-02-12T19:15:20.769Z,5.66
2019-02-12T19:17:54.595Z,5.77
2019-02-12T19:20:24.561Z,5.80
2019-02-12T19:22:54.403Z,5.77
2019-02-12T19:25:23.896Z,5.72
2019-02-12T19:27:53.736Z,5.69
2019-02-12T19:30:23.602Z,5.71
2019-02-12T19:32:53.660Z,5.70
2019-02-12T19:35:23.702Z,5.70
2019-02-12T19:37:53.376Z,5.80
2019-02-12T19:40:23.442Z,5.78
2019-02-12T19:42:53.425Z,5.72
2019-02-12T19:45:23.253Z,5.77
2019-02-12T19:47:53.545Z,5.62
2019-02-12T19:50:23.375Z,5.60
2019-02-12T19:52:52.937Z,5.59
2019-02-12T19:55:22.742Z,5.59
2019-02-12T19:57:52.869Z,5.47
2019-02-12T20:00:22.421Z,5.51
2019-02-12T20:02:52.394Z,5.64
2019-02-12T20:05:21.989Z,5.56
2019-02-12T20:07:51.623Z,5.43
2019-02-12T20:10:21.607Z,5.56
2019-02-12T20:12:51.871Z,5.47
2019-02-12T20:15:21.680Z,5.34
2019-02-12T20:17:51.931Z,5.35
2019-02-12T20:20:21.943Z,5.26
2019-02-12T20:22:52.100Z,5.18
2019-02-12T20:25:24.139Z,5.29
2019-02-12T20:27:53.672Z,5.32
2019-02-12T20:30:23.334Z,5.38
2019-02-12T20:32:52.889Z,5.27
2019-02-12T20:35:22.535Z,5.35
2019-02-12T20:37:52.584Z,5.43
2019-02-12T20:40:22.393Z,5.43
2019-02-12T20:42:52.049Z,5.34
2019-02-12T20:45:22.007Z,5.29
2019-02-12T20:47:51.538Z,5.32
2019-02-12T20:50:21.180Z,5.27
2019-02-12T20:52:50.763Z,5.19
2019-02-12T20:55:20.636Z,5.09
2019-02-12T20:57:50.426Z,5.07
2019-02-12T21:00:20.137Z,5.17
2019-02-12T21:02:49.966Z,5.27
2019-02-12T21:05:19.842Z,5.19
2019-02-12T21:07:49.657Z,5.09
2019-02-12T21:10:19.547Z,5.21
2019-02-12T21:12:49.303Z,5.13
2019-02-12T21:15:19.749Z,5.35
2019-02-12T21:17:49.356Z,5.14
2019-02-12T21:20:18.904Z,4.97
2019-02-12T21:22:49.301Z,5.13
2019-02-12T21:25:19.065Z,5.17
2019-02-12T21:27:49.126Z,5.20
2019-02-12T21:30:20.085Z,5.13
2019-02-12T21:32:49.815Z,5.10
2019-02-12T21:35:19.363Z,5.12
2019-02-12T21:37:49.172Z,5.16
2019-02-12T21:40:20.288Z,5.21
2019-02-12T21:42:50.518Z,5.22
2019-02-12T21:45:37.328Z,5.12
2019-02-12T21:48:06.849Z,5.15
2019-02-12T21:50:37.364Z,5.30
2019-02-12T21:53:07.353Z,5.29
2019-02-12T21:55:36.875Z,5.24
2019-02-12T21:58:06.369Z,5.23
2019-02-12T22:00:35.963Z,5.13
2019-02-12T22:03:05.635Z,5.12
2019-02-12T22:05:35.419Z,5.25
2019-02-12T22:08:04.914Z,5.41
2019-02-12T22:10:34.556Z,5.37
2019-02-12T22:13:04.087Z,5.38
2019-02-12T22:15:33.652Z,5.32
2019-02-12T22:18:03.173Z,5.35
2019-02-12T22:20:32.968Z,5.34
2019-02-12T22:23:02.497Z,5.48
2019-02-12T22:25:32.411Z,5.43
2019-02-12T22:28:01.972Z,5.58
2019-02-12T22:30:31.555Z,5.55
2019-02-12T22:33:01.060Z,5.51
2019-02-12T22:35:30.987Z,5.38
2019-02-12T22:38:00.577Z,5.44
2019-02-12T22:40:30.407Z,5.48
2019-02-12T22:43:00.502Z,5.61
2019-02-12T22:45:30.438Z,5.50
2019-02-12T22:48:00.494Z,5.52
2019-02-12T22:50:30.031Z,5.58
2019-02-12T22:52:59.810Z,5.53
2019-02-12T22:55:30.037Z,5.48
2019-02-12T22:57:59.582Z,5.55
2019-02-12T23:00:50.705Z,5.41
2019-02-12T23:03:20.522Z,5.41
2019-02-12T23:05:50.254Z,5.42
2019-02-12T23:08:20.014Z,5.32
2019-02-12T23:10:49.534Z,5.34
2019-02-12T23:13:19.511Z,5.27
2019-02-12T23:15:49.058Z,5.39
2019-02-12T23:18:18.807Z,5.48
2019-02-12T23:20:48.786Z,5.38
2019-02-12T23:23:18.391Z,5.36
2019-02-12T23:25:47.961Z,5.49
2019-02-12T23:28:17.707Z,5.52
2019-02-12T23:30:47.230Z,5.47
2019-02-12T23:33:16.717Z,5.49
2019-02-12T23:35:46.222Z,5.41
2019-02-12T23:38:16.432Z,5.43
2019-02-12T23:40:46.454Z,5.36
2019-02-12T23:43:16.566Z,5.38
2019-02-12T23:45:46.101Z,5.47
2019-02-12T23:48:15.612Z,5.38
2019-02-12T23:50:45.342Z,5.47
2019-02-12T23:53:15.096Z,5.46
2019-02-12T23:55:45.224Z,5.48
2019-02-12T23:58:14.729Z,5.48
